Ridgedale, Missouri
Current Conditions -  °F | °C
As of 3:45 PM on Tuesday 25 Nov 2014 (Local Time) from KBBG Reporting Station
Few Clouds Few Clouds  
Wind Chill: 44°   Ceiling: Unl
Heat Index: 46°   Visibility: 10mi
Dew Point: 16°   Wind: 5mph
Humidity: 29%   Direction: 290°WNW
Pressure: 30.14"   Gusts: NA
Location:  36.5°N, 93.22°W
Report Text: KBBG 252145Z 29004KT 10SM FEW150 08/M09 A3014
Loading
Personal Weather Stations






























Interactive Weather Map New forecast layout! Learn more

10-Day Weather Forecast

Advertisements
Track Severe Weather on mobile